Airfield :
LOGIN :

Register | Disclaimer

   EN    FR    IT 

 










Legend :    VFR   Marginal VFR   IFR   Intensive IFR   Very Intensive IFR
Visi :
Ceiling :
>= 8 km
>= 3000ft
5 to 8 km
1000 to 3000 ft
1500m to 5 km
500 to 1000 ft
800 to 1500m
200 to 500 ft
< 800m
< 200 ft
Symbols :   Thunderstorms  Fog  Heavy snow  Heavy precipitations  Wind > 20 kt
SIGMETs :     Misc.  Thunderstorms  Icing  Turbulence  Mountain Waves  Volcanic Ashes







- Airport Elevation : 776 ft
- IATA code : RMS


ETAR - Ramstein Air Base

CURRENT METAR :
  • 201156Z AUTO 32007KT 9999 BKN029 BKN180 18/12 A2971 RMK AO2 CIG 026 RWY08 SLP062 70014 T01770117 10181 20119 53004 $

EXPIRED METARs :
  • 201056Z AUTO 29006KT 9999 OVC026 17/12 A2970 RMK AO2 OVC V BKN SLP059 T01710118 $
  • 201026Z AUTO 30006KT 9999 BKN025 BKN120 BKN190 17/12 A2970 RMK AO2 CIG 025V190 BKN025 V SCT SLP059 $
  • 200956Z 35007KT 9999 BKN024 17/12 A2970 RMK AO2A SLP057 T01710118 $
  • 200916Z 33006KT 9999 BKN022 16/11 A2970 RMK AO2A BKN V SCT CIG 021 RWY08 SLP059 $

TAF TAF ETAR
Valid from the 20 at 10:00 until the 21 at 16:00 UTC


201009Z 2010/2116 33012KT 9000 -RA BKN030 620707 QNH2968INS
BECMG 2012/2013 34009KT 9999 VCTS BKN030CB QNH2966INS
TEMPO 2013/2019 32012G20KT 6000 -TSRA OVC020CB
BECMG 2019/2020 31009KT 9999 NSW BKN030 QNH2970INS
BECMG 2107/2108 29010G20KT 9999 BKN030 QNH2982INS TX20/2015Z TN09/2106Z
No reported NOTAMs for that airfield.
1 SIGMET reported for the Langen FIR (EDGG) :
 
Embedded thunderstorms
EDGG SIGMET 1 VALID 201121/201300 EDZF
EDGG LANGEN FIR EMBD TS FCST WI N4846 E00850 - N4835 E00931 - N4759 E00929 - N4818 E00803 - N4846 E00850 TOP FL300 MOV S NC=



MET'MAP, your aeronautical weather chart ! - Copyright ORBIFLY December 2007 - Disclaimer

ORBIFLY MET'MAP TEAM :

Programming & Development : Alexandra Zaïnal
Concept & Development : Baudouin d'Aumeries
Co-Development & Prog : Marc-Olivier Méhu
Technical & hardware support : Manuel Goepfert

Contact : metmap@orbifly.com




SOURCES & CREDITS :

   NOAA